createdAt,value
2019-02-03T00:00:00.622Z,0.00
2019-02-03T00:01:00.635Z,0.00
2019-02-03T00:02:00.656Z,0.00
2019-02-03T00:03:00.655Z,0.00
2019-02-03T00:04:00.666Z,0.00
2019-02-03T00:05:00.677Z,0.00
2019-02-03T00:06:00.686Z,0.00
2019-02-03T00:07:03.346Z,0.00
2019-02-03T00:08:00.704Z,0.00
2019-02-03T00:09:00.719Z,0.00
2019-02-03T00:10:00.732Z,0.00
2019-02-03T00:11:00.743Z,0.00
2019-02-03T00:12:00.747Z,0.00
2019-02-03T00:13:00.761Z,0.00
2019-02-03T00:14:00.770Z,0.00
2019-02-03T00:15:00.780Z,0.00
2019-02-03T00:16:00.793Z,0.00
2019-02-03T00:17:00.801Z,0.00
2019-02-03T00:18:00.815Z,0.00
2019-02-03T00:19:00.824Z,0.00
2019-02-03T00:20:00.834Z,0.00
2019-02-03T00:21:00.846Z,0.00
2019-02-03T00:22:00.856Z,0.00
2019-02-03T00:23:00.863Z,0.00
2019-02-03T00:24:01.128Z,0.00
2019-02-03T00:25:00.891Z,0.00
2019-02-03T00:26:00.899Z,0.00
2019-02-03T00:27:00.910Z,0.00
2019-02-03T00:28:00.920Z,0.00
2019-02-03T00:29:00.931Z,0.00
2019-02-03T00:30:00.943Z,0.00
2019-02-03T00:31:00.951Z,0.00
2019-02-03T00:32:00.963Z,0.00
2019-02-03T00:33:00.976Z,0.00
2019-02-03T00:34:00.984Z,0.00
2019-02-03T00:35:00.996Z,0.00
2019-02-03T00:36:01.006Z,0.00
2019-02-03T00:37:01.017Z,0.00
2019-02-03T00:38:01.047Z,0.00
2019-02-03T00:39:01.055Z,0.00
2019-02-03T00:40:01.053Z,0.00
2019-02-03T00:41:01.108Z,0.00
2019-02-03T00:42:01.072Z,0.00
2019-02-03T00:43:01.081Z,0.00
2019-02-03T00:44:01.092Z,0.00
2019-02-03T00:45:01.106Z,0.00
2019-02-03T00:46:01.116Z,0.00
2019-02-03T00:47:01.126Z,0.00
2019-02-03T00:48:01.140Z,0.00
2019-02-03T00:49:01.398Z,0.00
2019-02-03T00:50:01.160Z,0.00
2019-02-03T00:51:01.168Z,0.00
2019-02-03T00:52:01.180Z,0.00
2019-02-03T00:53:01.191Z,0.00
2019-02-03T00:54:01.502Z,0.00
2019-02-03T00:55:01.220Z,0.00
2019-02-03T00:56:01.225Z,0.00
2019-02-03T00:57:01.233Z,0.00
2019-02-03T00:58:01.248Z,0.00
2019-02-03T00:59:01.256Z,0.00
2019-02-03T01:00:01.270Z,0.00
2019-02-03T01:01:01.280Z,0.00
2019-02-03T01:02:01.290Z,0.00
2019-02-03T01:03:01.300Z,0.00
2019-02-03T01:04:01.563Z,0.00
2019-02-03T01:05:01.324Z,0.00
2019-02-03T01:06:01.486Z,0.00
2019-02-03T01:07:01.345Z,0.00
2019-02-03T01:08:01.354Z,0.00
2019-02-03T01:09:01.366Z,0.00
2019-02-03T01:10:01.379Z,0.00
2019-02-03T01:11:01.389Z,0.00
2019-02-03T01:12:01.401Z,0.00
2019-02-03T01:13:01.412Z,0.00
2019-02-03T01:14:01.423Z,0.00
2019-02-03T01:15:01.432Z,0.00
2019-02-03T01:16:01.446Z,0.00
2019-02-03T01:17:01.457Z,0.00
2019-02-03T01:18:01.466Z,0.00
2019-02-03T01:19:01.777Z,0.00
2019-02-03T01:20:01.486Z,0.00
2019-02-03T01:21:01.499Z,0.00
2019-02-03T01:22:01.512Z,0.00
2019-02-03T01:23:01.521Z,0.00
2019-02-03T01:24:01.783Z,0.00
2019-02-03T01:25:01.544Z,0.00
2019-02-03T01:26:01.557Z,0.00
2019-02-03T01:27:01.566Z,0.00
2019-02-03T01:28:01.577Z,0.00
2019-02-03T01:29:01.671Z,0.00
2019-02-03T01:30:01.691Z,0.00
2019-02-03T01:31:01.670Z,0.00
2019-02-03T01:32:01.671Z,0.00
2019-02-03T01:33:01.681Z,0.00
2019-02-03T01:34:01.676Z,0.00
2019-02-03T01:35:01.737Z,0.00
2019-02-03T01:36:01.766Z,0.00
2019-02-03T01:37:01.742Z,0.00
2019-02-03T01:38:01.749Z,0.00
2019-02-03T01:39:02.024Z,0.00
2019-02-03T01:40:01.725Z,0.00
2019-02-03T01:41:01.730Z,0.00
2019-02-03T01:42:01.731Z,0.00
2019-02-03T01:43:01.744Z,0.00
2019-02-03T01:44:02.004Z,0.00
2019-02-03T01:45:01.767Z,0.00
2019-02-03T01:46:01.784Z,0.00
2019-02-03T01:47:01.788Z,0.00
2019-02-03T01:48:01.799Z,0.00
2019-02-03T01:49:01.811Z,0.00
2019-02-03T01:50:01.826Z,0.00
2019-02-03T01:51:01.832Z,0.00
2019-02-03T01:52:01.843Z,0.00
2019-02-03T01:53:01.855Z,0.00
2019-02-03T01:54:01.866Z,0.00
2019-02-03T01:55:01.875Z,0.00
2019-02-03T01:56:01.888Z,0.00
2019-02-03T01:57:01.902Z,0.00
2019-02-03T01:58:01.910Z,0.00
2019-02-03T01:59:01.919Z,0.00
2019-02-03T02:00:01.931Z,0.00
2019-02-03T02:01:01.944Z,0.00
2019-02-03T02:02:01.954Z,0.00
2019-02-03T02:03:01.963Z,0.00
2019-02-03T02:04:02.225Z,0.00
2019-02-03T02:05:01.988Z,0.00
2019-02-03T02:06:02.000Z,0.00
2019-02-03T02:07:02.008Z,0.00
2019-02-03T02:08:02.021Z,0.00
2019-02-03T02:09:02.087Z,0.00
2019-02-03T02:10:02.041Z,0.00
2019-02-03T02:11:02.054Z,0.00
2019-02-03T02:12:02.063Z,0.00
2019-02-03T02:13:02.074Z,0.00
2019-02-03T02:14:02.087Z,0.00
2019-02-03T02:15:02.097Z,0.00
2019-02-03T02:16:02.105Z,0.00
2019-02-03T02:17:02.117Z,0.00
2019-02-03T02:18:02.128Z,0.00
2019-02-03T02:19:02.391Z,0.00
2019-02-03T02:20:02.151Z,0.00
2019-02-03T02:21:02.163Z,0.00
2019-02-03T02:22:02.174Z,0.00
2019-02-03T02:23:02.181Z,0.00
2019-02-03T02:24:02.194Z,0.00
2019-02-03T02:25:02.208Z,0.00
2019-02-03T02:26:02.216Z,0.00
2019-02-03T02:27:02.233Z,0.00
2019-02-03T02:28:02.240Z,0.00
2019-02-03T02:29:02.250Z,0.00
2019-02-03T02:30:02.265Z,0.00
2019-02-03T02:31:02.272Z,0.00
2019-02-03T02:32:02.283Z,0.00
2019-02-03T02:33:02.296Z,0.00
2019-02-03T02:34:02.306Z,0.00
2019-02-03T02:35:02.325Z,0.00
2019-02-03T02:36:02.324Z,0.00
2019-02-03T02:37:02.341Z,0.00
2019-02-03T02:38:07.158Z,0.00
2019-02-03T02:39:02.358Z,0.00
2019-02-03T02:40:12.312Z,0.00
2019-02-03T02:41:02.381Z,0.00
2019-02-03T02:42:02.395Z,0.00
2019-02-03T02:43:02.405Z,0.00
2019-02-03T02:44:02.734Z,0.00
2019-02-03T02:45:02.431Z,0.00
2019-02-03T02:46:02.446Z,0.00
2019-02-03T02:47:02.451Z,0.00
2019-02-03T02:48:02.459Z,0.00
2019-02-03T02:49:02.468Z,0.00
2019-02-03T02:50:02.479Z,0.00
2019-02-03T02:51:02.492Z,0.00
2019-02-03T02:52:02.640Z,0.00
2019-02-03T02:53:02.517Z,0.00
2019-02-03T02:54:02.529Z,0.00
2019-02-03T02:55:02.534Z,0.00
2019-02-03T02:56:02.546Z,0.00
2019-02-03T02:57:02.558Z,0.00
2019-02-03T02:58:02.565Z,0.00
2019-02-03T02:59:02.877Z,0.00
2019-02-03T03:00:02.590Z,0.00
2019-02-03T03:01:02.601Z,0.00
2019-02-03T03:02:02.611Z,0.00
2019-02-03T03:03:02.739Z,0.00
2019-02-03T03:04:02.881Z,0.00
2019-02-03T03:05:02.648Z,0.00
2019-02-03T03:06:02.654Z,0.00
2019-02-03T03:07:02.668Z,0.00
2019-02-03T03:08:02.682Z,0.00
2019-02-03T03:09:02.687Z,0.00
2019-02-03T03:10:02.697Z,0.00
2019-02-03T03:11:02.711Z,0.00
2019-02-03T03:12:02.719Z,0.00
2019-02-03T03:13:02.732Z,0.00
2019-02-03T03:14:02.740Z,0.00
2019-02-03T03:15:02.749Z,0.00
2019-02-03T03:16:02.881Z,0.00
2019-02-03T03:17:02.774Z,0.00
2019-02-03T03:18:02.787Z,0.00
2019-02-03T03:19:03.095Z,0.00
2019-02-03T03:20:02.807Z,0.00
2019-02-03T03:21:02.816Z,0.00
2019-02-03T03:22:02.830Z,0.00
2019-02-03T03:23:02.839Z,0.00
2019-02-03T03:24:02.849Z,0.00
2019-02-03T03:25:02.858Z,0.00
2019-02-03T03:26:02.871Z,0.00
2019-02-03T03:27:02.881Z,0.00
2019-02-03T03:28:02.893Z,0.00
2019-02-03T03:29:03.153Z,0.00
2019-02-03T03:30:02.918Z,0.00
2019-02-03T03:31:02.955Z,0.00
2019-02-03T03:32:02.942Z,0.00
2019-02-03T03:33:02.950Z,0.00
2019-02-03T03:34:02.958Z,0.00
2019-02-03T03:35:02.968Z,0.00
2019-02-03T03:36:03.122Z,0.00
2019-02-03T03:37:02.989Z,0.00
2019-02-03T03:38:03.006Z,0.00
2019-02-03T03:39:03.010Z,0.00
2019-02-03T03:40:03.029Z,0.00
2019-02-03T03:41:03.034Z,0.00
2019-02-03T03:42:03.044Z,0.00
2019-02-03T03:43:03.054Z,0.00
2019-02-03T03:44:03.318Z,0.00
2019-02-03T03:45:03.077Z,0.00
2019-02-03T03:46:06.323Z,0.00
2019-02-03T03:47:03.096Z,0.00
2019-02-03T03:48:03.115Z,0.00
2019-02-03T03:49:03.122Z,0.00
2019-02-03T03:50:03.138Z,0.00
2019-02-03T03:51:03.145Z,0.00
2019-02-03T03:52:03.165Z,0.00
2019-02-03T03:53:03.163Z,0.00
2019-02-03T03:54:03.176Z,0.00
2019-02-03T03:55:03.188Z,0.00
2019-02-03T03:56:03.193Z,0.00
2019-02-03T03:57:03.207Z,0.00
2019-02-03T03:58:03.219Z,0.00
2019-02-03T03:59:03.231Z,0.00
2019-02-03T04:00:03.241Z,0.00
2019-02-03T04:01:03.254Z,0.00
2019-02-03T04:02:03.265Z,0.00
2019-02-03T04:03:03.276Z,0.00
2019-02-03T04:04:03.302Z,0.00
2019-02-03T04:05:03.301Z,0.00
2019-02-03T04:06:03.310Z,0.00
2019-02-03T04:07:03.317Z,0.00
2019-02-03T04:08:03.332Z,0.00
2019-02-03T04:09:03.594Z,0.00
2019-02-03T04:10:03.351Z,0.00
2019-02-03T04:11:03.421Z,0.00
2019-02-03T04:12:03.379Z,0.00
2019-02-03T04:13:03.484Z,0.00
2019-02-03T04:14:03.496Z,0.00
2019-02-03T04:15:03.531Z,0.00
2019-02-03T04:16:03.468Z,0.00
2019-02-03T04:17:03.485Z,0.00
2019-02-03T04:18:03.466Z,0.00
2019-02-03T04:19:03.787Z,0.00
2019-02-03T04:20:03.523Z,0.00
2019-02-03T04:21:03.522Z,0.00
2019-02-03T04:22:03.545Z,0.00
2019-02-03T04:23:03.529Z,0.00
2019-02-03T04:24:03.820Z,0.00
2019-02-03T04:25:03.526Z,0.00
2019-02-03T04:26:03.530Z,0.00
2019-02-03T04:27:03.538Z,0.00
2019-02-03T04:28:03.551Z,0.00
2019-02-03T04:29:03.561Z,0.00
2019-02-03T04:30:03.570Z,0.00
2019-02-03T04:31:03.582Z,0.00
2019-02-03T04:32:03.596Z,0.00
2019-02-03T04:33:03.606Z,0.00
2019-02-03T04:34:03.623Z,0.00
2019-02-03T04:35:03.625Z,0.00
2019-02-03T04:36:03.638Z,0.00
2019-02-03T04:37:03.648Z,0.00
2019-02-03T04:38:03.660Z,0.00
2019-02-03T04:39:03.672Z,0.00
2019-02-03T04:40:03.681Z,0.00
2019-02-03T04:41:03.691Z,0.00
2019-02-03T04:42:03.707Z,0.00
2019-02-03T04:43:03.713Z,0.00
2019-02-03T04:44:03.726Z,0.00
2019-02-03T04:45:03.736Z,0.00
2019-02-03T04:46:03.750Z,0.00
2019-02-03T04:47:03.846Z,0.00
2019-02-03T04:48:03.774Z,0.00
2019-02-03T04:49:03.812Z,0.00
2019-02-03T04:50:03.798Z,0.00
2019-02-03T04:51:03.803Z,0.00
2019-02-03T04:52:03.812Z,0.00
2019-02-03T04:53:03.823Z,0.00
2019-02-03T04:54:03.834Z,0.00
2019-02-03T04:55:03.844Z,0.00
2019-02-03T04:56:03.856Z,0.00
2019-02-03T04:57:03.869Z,0.00
2019-02-03T04:58:03.887Z,0.00
2019-02-03T04:59:03.891Z,0.00
2019-02-03T05:00:03.901Z,0.00
2019-02-03T05:01:03.910Z,0.00
2019-02-03T05:02:03.922Z,0.00
2019-02-03T05:03:03.935Z,0.00
2019-02-03T05:04:03.943Z,0.00
2019-02-03T05:05:03.956Z,0.00
2019-02-03T05:06:03.967Z,0.00
2019-02-03T05:07:03.977Z,0.00
2019-02-03T05:08:03.986Z,0.00
2019-02-03T05:09:11.330Z,0.00
2019-02-03T05:10:04.010Z,0.00
2019-02-03T05:11:04.021Z,0.00
2019-02-03T05:12:04.039Z,0.00
2019-02-03T05:13:04.044Z,0.00
2019-02-03T05:14:04.054Z,0.00
2019-02-03T05:15:04.067Z,0.00
2019-02-03T05:16:04.076Z,0.00
2019-02-03T05:17:04.085Z,0.00
2019-02-03T05:18:04.097Z,0.00
2019-02-03T05:19:04.107Z,0.00
2019-02-03T05:20:04.118Z,0.00
2019-02-03T05:21:04.133Z,0.00
2019-02-03T05:22:04.146Z,0.00
2019-02-03T05:23:04.155Z,0.00
2019-02-03T05:24:04.165Z,0.00
2019-02-03T05:25:04.175Z,0.00
2019-02-03T05:26:04.206Z,0.00
2019-02-03T05:27:04.197Z,0.00
2019-02-03T05:28:04.209Z,0.00
2019-02-03T05:29:04.469Z,0.00
2019-02-03T05:30:04.232Z,0.00
2019-02-03T05:31:04.248Z,0.00
2019-02-03T05:32:04.252Z,0.00
2019-02-03T05:33:04.262Z,0.00
2019-02-03T05:34:04.279Z,0.00
2019-02-03T05:35:04.284Z,0.00
2019-02-03T05:36:04.295Z,0.00
2019-02-03T05:37:04.306Z,0.00
2019-02-03T05:38:04.346Z,0.00
2019-02-03T05:39:04.330Z,0.00
2019-02-03T05:40:04.340Z,0.00
2019-02-03T05:41:04.350Z,0.00
2019-02-03T05:42:04.363Z,0.00
2019-02-03T05:43:04.372Z,0.00
2019-02-03T05:44:04.383Z,0.00
2019-02-03T05:45:04.396Z,0.00
2019-02-03T05:46:04.409Z,0.00
2019-02-03T05:47:04.422Z,0.00
2019-02-03T05:48:04.429Z,0.00
2019-02-03T05:49:04.453Z,0.00
2019-02-03T05:50:04.451Z,0.00
2019-02-03T05:51:04.463Z,0.00
2019-02-03T05:52:04.473Z,0.00
2019-02-03T05:53:04.482Z,0.00
2019-02-03T05:54:04.497Z,0.00
2019-02-03T05:55:04.506Z,0.00
2019-02-03T05:56:04.515Z,0.00
2019-02-03T05:57:04.527Z,0.00
2019-02-03T05:58:04.540Z,0.00
2019-02-03T05:59:04.800Z,0.00
2019-02-03T06:00:04.564Z,0.00
2019-02-03T06:01:04.573Z,0.00
2019-02-03T06:02:04.583Z,0.00
2019-02-03T06:03:04.596Z,0.00
2019-02-03T06:04:04.905Z,0.00
2019-02-03T06:05:04.621Z,0.00
2019-02-03T06:06:04.627Z,0.00
2019-02-03T06:07:04.640Z,0.00
2019-02-03T06:08:04.650Z,0.00
2019-02-03T06:09:04.661Z,0.00
2019-02-03T06:10:04.678Z,0.00
2019-02-03T06:11:04.683Z,0.00
2019-02-03T06:12:04.694Z,0.00
2019-02-03T06:13:04.708Z,0.00
2019-02-03T06:14:04.717Z,0.00
2019-02-03T06:15:04.727Z,0.00
2019-02-03T06:16:04.738Z,0.00
2019-02-03T06:17:04.749Z,0.00
2019-02-03T06:18:04.824Z,0.00
2019-02-03T06:19:04.772Z,0.00
2019-02-03T06:20:04.784Z,0.00
2019-02-03T06:21:04.796Z,0.00
2019-02-03T06:22:04.806Z,0.00
2019-02-03T06:23:04.817Z,0.00
2019-02-03T06:24:05.125Z,0.00
2019-02-03T06:25:04.841Z,0.00
2019-02-03T06:26:04.849Z,0.00
2019-02-03T06:27:04.860Z,0.00
2019-02-03T06:28:04.870Z,0.00
2019-02-03T06:29:05.132Z,0.00
2019-02-03T06:30:04.894Z,0.00
2019-02-03T06:31:04.903Z,0.00
2019-02-03T06:32:04.918Z,0.00
2019-02-03T06:33:04.925Z,0.00
2019-02-03T06:34:04.937Z,0.00
2019-02-03T06:35:04.948Z,0.00
2019-02-03T06:36:04.959Z,0.00
2019-02-03T06:37:04.974Z,0.00
2019-02-03T06:38:04.982Z,0.00
2019-02-03T06:39:05.325Z,0.00
2019-02-03T06:40:05.001Z,0.00
2019-02-03T06:41:05.014Z,0.00
2019-02-03T06:42:05.024Z,0.00
2019-02-03T06:43:05.036Z,0.00
2019-02-03T06:44:05.047Z,0.00
2019-02-03T06:45:05.061Z,0.00
2019-02-03T06:46:05.072Z,0.00
2019-02-03T06:47:05.081Z,0.00
2019-02-03T06:48:05.094Z,0.00
2019-02-03T06:49:05.104Z,0.00
2019-02-03T06:50:05.116Z,0.00
2019-02-03T06:51:05.125Z,0.00
2019-02-03T06:52:05.136Z,0.00
2019-02-03T06:53:05.146Z,0.00
2019-02-03T06:54:05.158Z,0.00
2019-02-03T06:55:05.170Z,0.00
2019-02-03T06:56:05.198Z,0.00
2019-02-03T06:57:05.267Z,0.00
2019-02-03T06:58:05.280Z,0.00
2019-02-03T06:59:05.466Z,0.00
2019-02-03T07:00:05.258Z,5.63
2019-02-03T07:01:05.271Z,5.63
2019-02-03T07:02:05.324Z,5.63
2019-02-03T07:03:05.328Z,5.63
2019-02-03T07:04:05.336Z,5.63
2019-02-03T07:05:05.326Z,5.63
2019-02-03T07:06:05.326Z,5.63
2019-02-03T07:07:05.320Z,5.63
2019-02-03T07:08:05.333Z,5.63
2019-02-03T07:09:05.326Z,5.63
2019-02-03T07:10:05.335Z,5.63
2019-02-03T07:11:05.348Z,5.63
2019-02-03T07:12:05.357Z,5.63
2019-02-03T07:13:05.371Z,11.25
2019-02-03T07:14:05.378Z,11.25
2019-02-03T07:15:05.391Z,11.25
2019-02-03T07:16:05.402Z,11.25
2019-02-03T07:17:05.418Z,11.25
2019-02-03T07:18:05.424Z,11.25
2019-02-03T07:19:05.433Z,11.25
2019-02-03T07:20:05.446Z,11.25
2019-02-03T07:21:05.455Z,11.25
2019-02-03T07:22:05.468Z,11.25
2019-02-03T07:23:05.574Z,16.88
2019-02-03T07:24:05.740Z,16.88
2019-02-03T07:25:05.505Z,16.88
2019-02-03T07:26:05.511Z,16.88
2019-02-03T07:27:05.523Z,16.88
2019-02-03T07:28:05.535Z,16.88
2019-02-03T07:29:05.544Z,16.88
2019-02-03T07:30:05.558Z,16.88
2019-02-03T07:31:05.566Z,16.88
2019-02-03T07:32:05.578Z,16.88
2019-02-03T07:33:05.589Z,16.88
2019-02-03T07:34:05.600Z,16.88
2019-02-03T07:35:05.610Z,16.88
2019-02-03T07:36:05.620Z,16.88
2019-02-03T07:37:05.636Z,16.88
2019-02-03T07:38:05.646Z,16.88
2019-02-03T07:39:05.655Z,22.50
2019-02-03T07:40:12.458Z,22.50
2019-02-03T07:41:05.678Z,22.50
2019-02-03T07:42:05.689Z,22.50
2019-02-03T07:43:05.701Z,22.50
2019-02-03T07:44:05.711Z,28.13
2019-02-03T07:45:05.723Z,28.13
2019-02-03T07:46:05.736Z,22.50
2019-02-03T07:47:05.744Z,28.13
2019-02-03T07:48:05.754Z,28.13
2019-02-03T07:49:06.016Z,28.13
2019-02-03T07:50:05.775Z,28.13
2019-02-03T07:51:05.791Z,28.13
2019-02-03T07:52:05.799Z,28.13
2019-02-03T07:53:08.532Z,28.13
2019-02-03T07:54:08.473Z,28.13
2019-02-03T07:55:05.831Z,33.75
2019-02-03T07:56:05.845Z,33.75
2019-02-03T07:57:05.856Z,33.75
2019-02-03T07:58:05.867Z,33.75
2019-02-03T07:59:06.176Z,33.75
2019-02-03T08:00:05.886Z,33.75
2019-02-03T08:01:05.900Z,33.75
2019-02-03T08:02:05.910Z,33.75
2019-02-03T08:03:05.923Z,33.75
2019-02-03T08:04:05.939Z,39.38
2019-02-03T08:05:05.944Z,39.38
2019-02-03T08:06:05.955Z,33.75
2019-02-03T08:07:05.972Z,33.75
2019-02-03T08:08:05.976Z,33.75
2019-02-03T08:09:06.237Z,33.75
2019-02-03T08:10:05.999Z,33.75
2019-02-03T08:11:06.009Z,39.38
2019-02-03T08:12:06.019Z,39.38
2019-02-03T08:13:06.033Z,39.38
2019-02-03T08:14:06.042Z,39.38
2019-02-03T08:15:06.054Z,39.38
2019-02-03T08:16:06.064Z,39.38
2019-02-03T08:17:06.079Z,45.00
2019-02-03T08:18:06.087Z,45.00
2019-02-03T08:19:06.095Z,50.63
2019-02-03T08:20:06.108Z,45.00
2019-02-03T08:21:06.120Z,50.63
2019-02-03T08:22:06.131Z,50.63
2019-02-03T08:23:06.142Z,45.00
2019-02-03T08:24:06.453Z,50.63
2019-02-03T08:25:06.164Z,50.63
2019-02-03T08:26:06.190Z,50.63
2019-02-03T08:27:06.260Z,45.00
2019-02-03T08:28:06.199Z,50.63
2019-02-03T08:29:06.207Z,50.63
2019-02-03T08:30:06.221Z,45.00
2019-02-03T08:31:06.230Z,45.00
2019-02-03T08:32:06.237Z,45.00
2019-02-03T08:33:06.250Z,45.00
2019-02-03T08:34:06.262Z,50.63
2019-02-03T08:35:06.276Z,56.25
2019-02-03T08:36:06.284Z,50.63
2019-02-03T08:37:06.296Z,50.63
2019-02-03T08:38:06.305Z,56.25
2019-02-03T08:39:06.315Z,50.63
2019-02-03T08:40:06.327Z,56.25
2019-02-03T08:41:06.338Z,50.63
2019-02-03T08:42:06.347Z,50.63
2019-02-03T08:43:06.361Z,56.25
2019-02-03T08:44:06.375Z,56.25
2019-02-03T08:45:06.379Z,61.88
2019-02-03T08:46:06.391Z,56.25
2019-02-03T08:47:06.426Z,61.88
2019-02-03T08:48:06.415Z,56.25
2019-02-03T08:49:06.726Z,61.88
2019-02-03T08:50:06.435Z,61.88
2019-02-03T08:51:06.566Z,67.50
2019-02-03T08:52:06.456Z,67.50
2019-02-03T08:53:06.468Z,67.50
2019-02-03T08:54:06.480Z,67.50
2019-02-03T08:55:06.490Z,61.88
2019-02-03T08:56:06.499Z,67.50
2019-02-03T08:57:06.512Z,61.88
2019-02-03T08:58:06.525Z,73.13
2019-02-03T08:59:06.781Z,73.13
2019-02-03T09:00:06.542Z,73.13
2019-02-03T09:01:06.555Z,61.88
2019-02-03T09:02:06.564Z,67.50
2019-02-03T09:03:08.508Z,67.50
2019-02-03T09:04:06.586Z,67.50
2019-02-03T09:05:06.595Z,67.50
2019-02-03T09:06:06.650Z,73.13
2019-02-03T09:07:06.616Z,78.75
2019-02-03T09:08:06.637Z,73.13
2019-02-03T09:09:06.642Z,67.50
2019-02-03T09:10:06.653Z,67.50
2019-02-03T09:11:06.661Z,73.13
2019-02-03T09:12:06.672Z,67.50
2019-02-03T09:13:06.684Z,73.13
2019-02-03T09:14:06.698Z,61.88
2019-02-03T09:15:06.708Z,67.50
2019-02-03T09:16:06.715Z,67.50
2019-02-03T09:17:06.729Z,61.88
2019-02-03T09:18:06.763Z,61.88
2019-02-03T09:19:06.745Z,67.50
2019-02-03T09:20:06.759Z,67.50
2019-02-03T09:21:06.772Z,67.50
2019-02-03T09:22:06.780Z,61.88
2019-02-03T09:23:06.792Z,61.88
2019-02-03T09:24:06.803Z,67.50
2019-02-03T09:25:06.814Z,73.13
2019-02-03T09:26:08.668Z,67.50
2019-02-03T09:27:06.834Z,78.75
2019-02-03T09:28:06.848Z,67.50
2019-02-03T09:29:06.856Z,73.13
2019-02-03T09:30:06.869Z,73.13
2019-02-03T09:31:06.878Z,73.13
2019-02-03T09:32:06.889Z,73.13
2019-02-03T09:33:06.904Z,67.50
2019-02-03T09:34:06.911Z,61.88
2019-02-03T09:35:06.922Z,67.50
2019-02-03T09:36:06.934Z,61.88
2019-02-03T09:37:06.945Z,67.50
2019-02-03T09:38:06.958Z,61.88
2019-02-03T09:39:06.966Z,61.88
2019-02-03T09:40:06.989Z,61.88
2019-02-03T09:41:07.062Z,73.13
2019-02-03T09:42:07.063Z,84.38
2019-02-03T09:43:07.092Z,78.75
2019-02-03T09:44:07.063Z,84.38
2019-02-03T09:45:07.066Z,84.38
2019-02-03T09:46:07.120Z,84.38
2019-02-03T09:47:07.121Z,78.75
2019-02-03T09:48:07.140Z,73.13
2019-02-03T09:49:07.117Z,84.38
2019-02-03T09:50:07.117Z,90.00
2019-02-03T09:51:07.117Z,101.25
2019-02-03T09:52:07.118Z,112.50
2019-02-03T09:53:07.144Z,95.63
2019-02-03T09:54:07.136Z,78.75
2019-02-03T09:55:07.146Z,90.00
2019-02-03T09:56:07.156Z,95.63
2019-02-03T09:57:07.170Z,90.00
2019-02-03T09:58:07.178Z,90.00
2019-02-03T09:59:07.191Z,95.63
2019-02-03T10:00:07.203Z,84.38
2019-02-03T10:01:07.211Z,84.38
2019-02-03T10:02:07.223Z,84.38
2019-02-03T10:03:07.235Z,84.38
2019-02-03T10:04:07.248Z,84.38
2019-02-03T10:05:07.260Z,95.63
2019-02-03T10:06:07.268Z,84.38
2019-02-03T10:07:07.279Z,84.38
2019-02-03T10:08:07.293Z,90.00
2019-02-03T10:09:07.304Z,90.00
2019-02-03T10:10:07.315Z,78.75
2019-02-03T10:11:12.116Z,84.38
2019-02-03T10:12:07.336Z,90.00
2019-02-03T10:13:07.346Z,84.38
2019-02-03T10:14:07.358Z,84.38
2019-02-03T10:15:07.369Z,90.00
2019-02-03T10:16:07.381Z,95.63
2019-02-03T10:17:07.524Z,101.25
2019-02-03T10:18:07.405Z,106.88
2019-02-03T10:19:07.416Z,101.25
2019-02-03T10:20:07.426Z,95.63
2019-02-03T10:21:07.439Z,90.00
2019-02-03T10:22:07.451Z,106.88
2019-02-03T10:23:07.460Z,90.00
2019-02-03T10:24:07.474Z,101.25
2019-02-03T10:25:07.483Z,95.63
2019-02-03T10:26:07.494Z,90.00
2019-02-03T10:27:07.506Z,90.00
2019-02-03T10:28:07.521Z,84.38
2019-02-03T10:29:07.529Z,78.75
2019-02-03T10:30:07.542Z,84.38
2019-02-03T10:31:07.551Z,84.38
2019-02-03T10:32:07.562Z,84.38
2019-02-03T10:33:07.575Z,84.38
2019-02-03T10:34:07.605Z,84.38
2019-02-03T10:35:07.595Z,78.75
2019-02-03T10:36:07.610Z,84.38
2019-02-03T10:37:07.621Z,84.38
2019-02-03T10:38:07.632Z,90.00
2019-02-03T10:39:07.895Z,90.00
2019-02-03T10:40:07.659Z,90.00
2019-02-03T10:41:07.733Z,84.38
2019-02-03T10:42:07.680Z,84.38
2019-02-03T10:43:07.692Z,84.38
2019-02-03T10:44:07.700Z,90.00
2019-02-03T10:45:07.711Z,101.25
2019-02-03T10:46:07.725Z,90.00
2019-02-03T10:47:07.736Z,101.25
2019-02-03T10:48:07.745Z,101.25
2019-02-03T10:49:07.757Z,101.25
2019-02-03T10:50:07.770Z,101.25
2019-02-03T10:51:07.781Z,90.00
2019-02-03T10:52:07.789Z,101.25
2019-02-03T10:53:07.802Z,95.63
2019-02-03T10:54:07.816Z,118.13
2019-02-03T10:55:07.824Z,95.63
2019-02-03T10:56:07.837Z,101.25
2019-02-03T10:57:07.850Z,90.00
2019-02-03T10:58:07.859Z,84.38
2019-02-03T10:59:08.125Z,95.63
2019-02-03T11:00:17.989Z,112.50
2019-02-03T11:01:07.893Z,101.25
2019-02-03T11:02:07.905Z,106.88
2019-02-03T11:03:07.916Z,106.88
2019-02-03T11:04:07.926Z,118.13
2019-02-03T11:05:07.937Z,129.38
2019-02-03T11:06:07.950Z,146.25
2019-02-03T11:07:07.960Z,213.75
2019-02-03T11:08:07.972Z,213.75
2019-02-03T11:09:07.983Z,174.38
2019-02-03T11:10:07.994Z,157.50
2019-02-03T11:11:08.006Z,157.50
2019-02-03T11:12:08.016Z,180.00
2019-02-03T11:13:08.029Z,196.88
2019-02-03T11:14:08.040Z,225.00
2019-02-03T11:15:08.051Z,225.00
2019-02-03T11:16:08.066Z,196.88
2019-02-03T11:17:08.074Z,185.63
2019-02-03T11:18:08.089Z,185.63
2019-02-03T11:19:08.345Z,225.00
2019-02-03T11:20:08.110Z,191.25
2019-02-03T11:21:08.121Z,168.75
2019-02-03T11:22:08.135Z,180.00
2019-02-03T11:23:08.147Z,213.75
2019-02-03T11:24:08.154Z,213.75
2019-02-03T11:25:08.166Z,174.38
2019-02-03T11:26:08.177Z,146.25
2019-02-03T11:27:08.190Z,151.88
2019-02-03T11:28:08.203Z,185.63
2019-02-03T11:29:08.216Z,157.50
2019-02-03T11:30:08.224Z,163.13
2019-02-03T11:31:08.236Z,163.13
2019-02-03T11:32:08.250Z,151.88
2019-02-03T11:33:09.856Z,157.50
2019-02-03T11:34:08.271Z,168.75
2019-02-03T11:35:08.283Z,174.38
2019-02-03T11:36:08.295Z,174.38
2019-02-03T11:37:08.308Z,174.38
2019-02-03T11:38:08.321Z,168.75
2019-02-03T11:39:08.332Z,168.75
2019-02-03T11:40:08.342Z,157.50
2019-02-03T11:41:08.353Z,135.00
2019-02-03T11:42:08.368Z,140.63
2019-02-03T11:43:08.375Z,168.75
2019-02-03T11:44:08.388Z,151.88
2019-02-03T11:45:08.400Z,191.25
2019-02-03T11:46:08.412Z,146.25
2019-02-03T11:47:08.426Z,140.63
2019-02-03T11:48:08.437Z,151.88
2019-02-03T11:49:08.448Z,174.38
2019-02-03T11:50:08.460Z,174.38
2019-02-03T11:51:08.471Z,191.25
2019-02-03T11:52:08.484Z,168.75
2019-02-03T11:53:08.499Z,202.50
2019-02-03T11:54:08.506Z,191.25
2019-02-03T11:55:08.519Z,253.13
2019-02-03T11:56:08.530Z,208.13
2019-02-03T11:57:08.542Z,185.63
2019-02-03T11:58:08.552Z,157.50
2019-02-03T11:59:08.890Z,213.75
2019-02-03T12:00:08.576Z,174.38
2019-02-03T12:01:08.591Z,180.00
2019-02-03T12:02:08.602Z,191.25
2019-02-03T12:03:08.614Z,230.63
2019-02-03T12:04:08.626Z,219.38
2019-02-03T12:05:08.638Z,225.00
2019-02-03T12:06:08.650Z,180.00
2019-02-03T12:07:08.662Z,151.88
2019-02-03T12:08:08.673Z,180.00
2019-02-03T12:09:08.686Z,168.75
2019-02-03T12:10:08.699Z,174.38
2019-02-03T12:11:08.708Z,157.50
2019-02-03T12:12:08.721Z,163.13
2019-02-03T12:13:08.734Z,157.50
2019-02-03T12:14:08.744Z,151.88
2019-02-03T12:15:08.907Z,146.25
2019-02-03T12:16:08.787Z,140.63
2019-02-03T12:17:08.808Z,163.13
2019-02-03T12:18:08.876Z,146.25
2019-02-03T12:19:08.856Z,146.25
2019-02-03T12:20:08.861Z,157.50
2019-02-03T12:21:08.866Z,191.25
2019-02-03T12:22:08.924Z,129.38
2019-02-03T12:23:08.932Z,151.88
2019-02-03T12:24:08.923Z,208.13
2019-02-03T12:25:08.922Z,202.50
2019-02-03T12:26:08.926Z,168.75
2019-02-03T12:27:08.918Z,157.50
2019-02-03T12:28:08.934Z,163.13
2019-02-03T12:29:08.928Z,135.00
2019-02-03T12:30:08.940Z,129.38
2019-02-03T12:31:08.949Z,151.88
2019-02-03T12:32:08.965Z,174.38
2019-02-03T12:33:08.974Z,168.75
2019-02-03T12:34:08.988Z,163.13
2019-02-03T12:35:08.997Z,163.13
2019-02-03T12:36:09.114Z,129.38
2019-02-03T12:37:09.023Z,135.00
2019-02-03T12:38:09.036Z,151.88
2019-02-03T12:39:09.046Z,151.88
2019-02-03T12:40:09.059Z,140.63
2019-02-03T12:41:09.070Z,185.63
2019-02-03T12:42:13.287Z,168.75
2019-02-03T12:43:09.092Z,151.88
2019-02-03T12:44:09.128Z,118.13
2019-02-03T12:45:09.118Z,84.38
2019-02-03T12:46:09.129Z,73.13
2019-02-03T12:47:09.143Z,78.75
2019-02-03T12:48:09.156Z,78.75
2019-02-03T12:49:09.166Z,61.88
2019-02-03T12:50:09.178Z,61.88
2019-02-03T12:51:09.190Z,67.50
2019-02-03T12:52:09.205Z,61.88
2019-02-03T12:53:09.214Z,73.13
2019-02-03T12:54:09.225Z,67.50
2019-02-03T12:55:09.237Z,56.25
2019-02-03T12:56:09.249Z,56.25
2019-02-03T12:57:09.261Z,61.88
2019-02-03T12:58:09.273Z,61.88
2019-02-03T12:59:09.287Z,56.25
2019-02-03T13:00:09.297Z,61.88
2019-02-03T13:01:09.309Z,56.25
2019-02-03T13:02:09.321Z,67.50